Terminal Aerodrome Forecast
Issued by NWS

Home | Current Version | Previous Version | Text Only | Print | Product List | Glossary On
Versions: 1 2 3 4 5 6 7 8 9 10 11 12 13 14 15
000
FTUS45 KREV 221130
TAFTRK
TAF
KTRK 221130Z 2212/2312 00000KT 1/4SM FZFG VV002
     FM221600 VRB03KT P6SM VCFG FEW005
     FM221900 35005KT P6SM SCT180
     FM230200 VRB03KT P6SM SKC
     FM230900 00000KT 6SM BCFG FEW005=

USA.gov is the U.S. government's official web portal to all federal, state and local government web resources and services.